Harmonyville, Vermont
Current Conditions -  °F | °C
As of 2:54 AM on Monday 24 Nov 2014 (Local Time) from KVSF Reporting Station
Haze Haze  
Wind Chill: 34°   Ceiling: 3800
Heat Index: 34°   Visibility: 5mi
Dew Point: 33°   Wind: 0mph
Humidity: 96%   Direction: NA
Pressure: 29.98"   Gusts: NA
Location:  43.0642°N, 72.6668°W
Report Text: KVSF 240754Z AUTO 00000KT 5SM BR OVC038 01/01 A2998 RMK AO2 SLP156 T00110006
Loading
Personal Weather Stations






























Interactive Weather Map New forecast layout! Learn more

10-Day Weather Forecast

Advertisements
Track Severe Weather on mobile